SE-0017 weather

Frostlanda flygfält
Gäddede, Jämtlande län, Sweden

Public forecast

Using degrees Celsius for public forecast. Weather courtesy of forecast.io.

METAR (pilot weather report)

Closest report is Namsos Høknesøra Airport, 65.3 nm (121.0 km) W. Retrieved 2019/07/17 14:20 UTC (20 seconds ago):

ENNM 171420Z 33006KT 280V020 CAVOK 17/07 Q1012

TAF (pilot weather forecast)

Forecast is more than 12 hours old.

Closest forecast is Hemavan Airport, 83.2 nm (154.2 km) NNE. Retrieved 2009/10/12 22:40 UTC (10 years ago):

TAF TAF LTCC 122240Z 13 SASN33 ESWI 130020 RRA METAR ESUT 130020Z AUTO 00000KT 9999NDV NCD M08/M10 Q1022